Time;durP1;ratioP1;P1;durP2;ratioP2;P2;SDS_P1;SDS_P2;PMS_P1;PMS_P2;Temp;Humidity;BMP_temperature;BMP_pressure;BME280_temperature;BME280_humidity;BME280_pressure;Samples;Min_cycle;Max_cycle;Signal;HPM_P1;HPM_P2
2021/05/03 00:00:41;;;;;;;23.57;16.93;;;1.30;99.90;;;;;;2074059;28;20186;-68
2021/05/03 00:01:42;;;;;;;27.20;19.70;;;1.30;99.90;;;;;;2073905;28;20646;-68
2021/05/03 00:02:43;;;;;;;24.25;18.85;;;1.20;99.90;;;;;;2074186;28;20189;-67
2021/05/03 00:03:44;;;;;;;30.87;20.67;;;1.20;99.90;;;;;;2074015;28;20200;-68
2021/05/03 00:04:44;;;;;;;24.83;18.10;;;1.20;99.90;;;;;;2073571;28;20625;-68
2021/05/03 00:05:46;;;;;;;25.03;18.33;;;1.30;99.90;;;;;;2073285;28;20273;-68
2021/05/03 00:06:48;;;;;;;23.13;17.60;;;1.20;99.90;;;;;;2074111;28;20181;-68
2021/05/03 00:07:49;;;;;;;22.80;17.83;;;1.20;99.90;;;;;;2073413;28;20209;-67
2021/05/03 00:08:50;;;;;;;26.38;18.95;;;1.20;99.90;;;;;;2065466;28;20183;-68
2021/05/03 00:09:50;;;;;;;27.93;18.53;;;1.20;99.90;;;;;;2074531;28;20192;-68
2021/05/03 00:10:52;;;;;;;23.77;17.77;;;1.20;99.90;;;;;;2073936;28;20267;-68
2021/05/03 00:11:53;;;;;;;24.60;17.80;;;1.20;99.90;;;;;;2073208;28;20201;-68
2021/05/03 00:12:53;;;;;;;28.57;19.53;;;1.10;99.90;;;;;;2073470;28;20746;-68
2021/05/03 00:13:54;;;;;;;24.43;18.57;;;1.20;99.90;;;;;;2074110;28;20173;-68
2021/05/03 00:14:55;;;;;;;27.60;18.60;;;1.20;99.90;;;;;;2074145;28;20181;-67
2021/05/03 00:15:55;;;;;;;25.93;18.63;;;1.10;99.90;;;;;;2073855;28;20189;-68
2021/05/03 00:16:56;;;;;;;27.07;20.23;;;1.10;99.90;;;;;;2074116;28;20566;-67
2021/05/03 00:17:57;;;;;;;21.33;16.40;;;1.10;99.90;;;;;;2073890;28;20197;-67
2021/05/03 00:18:58;;;;;;;27.47;19.33;;;1.10;99.90;;;;;;2074018;28;20220;-68
2021/05/03 00:19:58;;;;;;;23.88;18.73;;;1.10;99.90;;;;;;2073282;28;20209;-67
2021/05/03 00:21:01;;;;;;;26.20;17.80;;;1.10;99.90;;;;;;2073367;28;20182;-67
2021/05/03 00:22:01;;;;;;;28.38;19.95;;;1.10;99.90;;;;;;2073734;28;20182;-68
2021/05/03 00:23:02;;;;;;;28.20;19.27;;;1.10;99.90;;;;;;2073942;28;20192;-68
2021/05/03 00:24:03;;;;;;;21.97;17.73;;;1.10;99.90;;;;;;2074006;28;20208;-67
2021/05/03 00:25:05;;;;;;;29.08;20.48;;;1.10;99.90;;;;;;2073866;28;20428;-68
2021/05/03 00:26:07;;;;;;;25.67;18.80;;;1.00;99.90;;;;;;2073292;28;20190;-68
2021/05/03 00:27:08;;;;;;;30.45;20.13;;;1.00;99.90;;;;;;2073100;28;20181;-68
2021/05/03 00:28:09;;;;;;;32.10;21.23;;;1.00;99.90;;;;;;2073951;28;20182;-67
2021/05/03 00:29:10;;;;;;;28.38;20.15;;;1.00;99.90;;;;;;2073903;28;20178;-68
2021/05/03 00:30:12;;;;;;;26.43;19.50;;;1.00;99.90;;;;;;2073966;28;20178;-67
2021/05/03 00:31:13;;;;;;;25.00;19.45;;;0.90;99.90;;;;;;2073078;28;20174;-67
2021/05/03 00:32:13;;;;;;;32.57;21.73;;;1.00;99.90;;;;;;2073158;28;20174;-68
2021/05/03 00:33:14;;;;;;;27.00;17.73;;;0.90;99.90;;;;;;2073894;28;20252;-68
2021/05/03 00:34:15;;;;;;;25.13;18.40;;;0.90;99.90;;;;;;2074013;28;20169;-66
2021/05/03 00:35:16;;;;;;;29.43;19.80;;;0.90;99.90;;;;;;2073894;28;20551;-68
2021/05/03 00:36:16;;;;;;;23.05;17.70;;;0.90;99.90;;;;;;2074026;28;20657;-67
2021/05/03 00:37:17;;;;;;;28.97;18.97;;;0.80;99.90;;;;;;2073778;28;20216;-67
2021/05/03 00:38:18;;;;;;;27.87;20.07;;;0.80;99.90;;;;;;2074133;28;20592;-67
2021/05/03 00:39:18;;;;;;;25.87;18.67;;;0.80;99.90;;;;;;2073890;28;20332;-68
2021/05/03 00:40:19;;;;;;;34.43;20.60;;;0.90;99.90;;;;;;2073945;28;20216;-68
2021/05/03 00:41:20;;;;;;;29.47;20.20;;;0.80;99.90;;;;;;2072977;28;20239;-68
2021/05/03 00:42:20;;;;;;;27.17;19.10;;;0.80;99.90;;;;;;2073212;28;20178;-67
2021/05/03 00:43:21;;;;;;;27.67;19.90;;;0.80;99.90;;;;;;2073607;28;20174;-67
2021/05/03 00:44:24;;;;;;;27.63;19.00;;;0.70;99.90;;;;;;2073868;28;20670;-67
2021/05/03 00:45:27;;;;;;;26.45;18.17;;;0.70;99.90;;;;;;2064984;28;20207;-67
2021/05/03 00:46:28;;;;;;;24.80;18.58;;;0.70;99.90;;;;;;2065659;28;20241;-68
2021/05/03 00:47:30;;;;;;;25.13;18.27;;;0.70;99.90;;;;;;2073549;28;20228;-67
2021/05/03 00:48:30;;;;;;;25.73;18.25;;;0.60;99.90;;;;;;2072986;28;20265;-68
2021/05/03 00:49:31;;;;;;;27.80;18.93;;;0.60;99.90;;;;;;2075302;28;20252;-68
2021/05/03 00:50:32;;;;;;;27.88;19.85;;;0.60;99.90;;;;;;2084130;28;20176;-68
2021/05/03 00:51:33;;;;;;;31.80;20.37;;;0.60;99.90;;;;;;2081698;28;20188;-67
2021/05/03 00:52:35;;;;;;;29.58;20.85;;;0.60;99.90;;;;;;2082072;28;20296;-68
2021/05/03 00:53:35;;;;;;;37.03;22.02;;;0.60;99.90;;;;;;2081552;28;20258;-68
2021/05/03 00:54:36;;;;;;;33.17;21.60;;;0.70;99.90;;;;;;2082873;28;20279;-68
2021/05/03 00:55:37;;;;;;;27.73;19.37;;;0.60;99.90;;;;;;2082004;28;20244;-68
2021/05/03 00:56:38;;;;;;;29.70;19.48;;;0.60;99.90;;;;;;2082099;28;20585;-68
2021/05/03 00:57:40;;;;;;;29.83;20.20;;;0.60;99.90;;;;;;2081282;28;20321;-68
2021/05/03 00:58:40;;;;;;;33.67;21.45;;;0.60;99.90;;;;;;2081533;28;20428;-68
2021/05/03 00:59:41;;;;;;;30.10;21.23;;;0.60;99.90;;;;;;2081848;28;20636;-68
2021/05/03 01:00:42;;;;;;;27.37;19.20;;;0.60;99.90;;;;;;2081351;28;20462;-68
2021/05/03 01:01:43;;;;;;;26.48;18.77;;;0.60;99.90;;;;;;2081137;28;20212;-68
2021/05/03 01:02:44;;;;;;;28.27;19.53;;;0.70;99.90;;;;;;2082007;28;20189;-67
2021/05/03 01:03:45;;;;;;;30.93;20.27;;;0.70;99.90;;;;;;2081908;28;20242;-68
2021/05/03 01:04:46;;;;;;;32.08;20.17;;;0.60;99.90;;;;;;2081843;28;20177;-68
2021/05/03 01:05:47;;;;;;;29.03;20.23;;;0.70;99.90;;;;;;2081868;28;20197;-67
2021/05/03 01:06:48;;;;;;;28.10;19.43;;;0.60;99.90;;;;;;2081870;28;20481;-67
2021/05/03 01:07:49;;;;;;;27.87;19.87;;;0.60;99.90;;;;;;2081232;28;20579;-68
2021/05/03 01:08:49;;;;;;;27.27;18.97;;;0.60;99.90;;;;;;2081201;28;20267;-68
2021/05/03 01:09:50;;;;;;;27.27;19.40;;;0.60;99.90;;;;;;2081793;28;20185;-67
2021/05/03 01:10:51;;;;;;;25.43;18.53;;;0.60;99.90;;;;;;2081724;28;20181;-68
2021/05/03 01:11:51;;;;;;;25.30;18.92;;;0.60;99.90;;;;;;2081634;28;20632;-68
2021/05/03 01:12:53;;;;;;;32.63;20.60;;;0.60;99.90;;;;;;2081658;28;20176;-68
2021/05/03 01:13:53;;;;;;;26.90;19.05;;;0.60;99.90;;;;;;2081848;28;20226;-67
2021/05/03 01:14:54;;;;;;;25.40;18.60;;;0.60;99.90;;;;;;2081691;28;20192;-68
2021/05/03 01:15:55;;;;;;;24.60;18.70;;;0.60;99.90;;;;;;2081656;28;20268;-68
2021/05/03 01:16:55;;;;;;;27.13;18.83;;;0.60;99.90;;;;;;2081672;28;20184;-68
2021/05/03 01:18:01;;;;;;;30.23;19.20;;;0.60;99.90;;;;;;2081663;28;20204;-66
2021/05/03 01:19:03;;;;;;;27.70;19.00;;;0.60;99.90;;;;;;2081738;28;20173;-68
2021/05/03 01:20:13;;;;;;;28.98;20.60;;;0.60;99.90;;;;;;2081826;28;20219;-67
2021/05/03 01:21:27;;;;;;;33.15;20.63;;;0.60;99.90;;;;;;2080803;28;20177;-66
2021/05/03 01:22:33;;;;;;;27.98;19.10;;;0.60;99.90;;;;;;2081301;28;20191;-68
2021/05/03 01:23:34;;;;;;;28.63;20.92;;;0.60;99.90;;;;;;2081528;28;20188;-67
2021/05/03 01:24:35;;;;;;;31.33;20.42;;;0.60;99.90;;;;;;2081032;28;20588;-67
2021/05/03 01:25:39;;;;;;;37.60;22.80;;;0.60;99.90;;;;;;2081142;28;20181;-68
2021/05/03 01:26:40;;;;;;;32.42;20.73;;;0.60;99.90;;;;;;2080849;28;20716;-68
2021/05/03 01:27:41;;;;;;;31.35;20.35;;;0.60;99.90;;;;;;2081010;28;20200;-68
2021/05/03 01:28:41;;;;;;;35.87;22.70;;;0.60;99.90;;;;;;2072883;28;20195;-68
2021/05/03 01:29:42;;;;;;;29.40;19.17;;;0.60;99.90;;;;;;2072844;28;20424;-68
2021/05/03 01:30:46;;;;;;;34.30;20.87;;;0.50;99.90;;;;;;2081131;28;20258;-68
2021/05/03 01:31:50;;;;;;;27.77;20.42;;;0.50;99.90;;;;;;2080690;28;20176;-68
2021/05/03 01:32:51;;;;;;;33.78;20.73;;;0.50;99.90;;;;;;2073161;28;20244;-67
2021/05/03 01:33:51;;;;;;;35.20;23.03;;;0.50;99.90;;;;;;2081067;28;20187;-68
2021/05/03 01:34:52;;;;;;;31.97;21.20;;;0.50;99.90;;;;;;2081719;28;20270;-68
2021/05/03 01:35:53;;;;;;;40.03;23.60;;;0.50;99.90;;;;;;2080887;28;20196;-68
2021/05/03 01:36:53;;;;;;;29.83;19.87;;;0.50;99.90;;;;;;2080876;28;20760;-68
2021/05/03 01:37:56;;;;;;;28.47;19.07;;;0.50;99.90;;;;;;2081437;28;20244;-68
2021/05/03 01:38:57;;;;;;;29.00;21.17;;;0.50;99.90;;;;;;2081780;28;20188;-68
2021/05/03 01:39:58;;;;;;;28.43;20.57;;;0.50;99.90;;;;;;2081516;28;20216;-68
2021/05/03 01:40:59;;;;;;;25.30;19.60;;;0.60;99.90;;;;;;2081536;28;20270;-66
2021/05/03 01:42:00;;;;;;;29.20;21.10;;;0.60;99.90;;;;;;2081308;28;20531;-67
2021/05/03 01:43:21;;;;;;;30.85;20.23;;;0.70;99.90;;;;;;2081600;28;20212;-68
2021/05/03 01:44:22;;;;;;;33.20;21.05;;;0.70;99.90;;;;;;2081562;28;20225;-67
2021/05/03 01:45:25;;;;;;;37.43;23.37;;;0.70;99.90;;;;;;2081469;28;20220;-68
2021/05/03 01:46:28;;;;;;;29.20;19.67;;;0.80;99.90;;;;;;2081494;28;20231;-68
2021/05/03 01:47:31;;;;;;;27.00;18.98;;;0.80;99.90;;;;;;2081174;28;20215;-67
2021/05/03 01:48:32;;;;;;;26.70;19.88;;;0.80;99.90;;;;;;2081064;28;20709;-68
2021/05/03 01:49:33;;;;;;;25.92;19.30;;;0.80;99.90;;;;;;2080937;28;20275;-68
2021/05/03 01:50:35;;;;;;;28.27;18.95;;;0.90;99.90;;;;;;2080958;28;20558;-67
2021/05/03 01:51:38;;;;;;;24.98;18.77;;;0.90;99.90;;;;;;2072708;28;20208;-67
2021/05/03 01:52:41;;;;;;;25.35;18.90;;;0.90;99.90;;;;;;2080860;28;20176;-67
2021/05/03 01:53:42;;;;;;;27.05;19.83;;;0.90;99.90;;;;;;2081361;28;20188;-68
2021/05/03 01:54:43;;;;;;;24.80;18.77;;;0.90;99.90;;;;;;2080797;28;20187;-67
2021/05/03 01:55:48;;;;;;;22.63;17.13;;;0.90;99.90;;;;;;2080787;28;20270;-67
2021/05/03 01:56:49;;;;;;;23.73;17.77;;;0.90;99.90;;;;;;2081454;28;20264;-68
2021/05/03 01:57:49;;;;;;;28.13;19.70;;;1.00;99.90;;;;;;2081452;28;20204;-68
2021/05/03 01:59:58;;;;;;;25.77;18.70;;;0.90;99.90;;;;;;2095419;28;20226;-69
2021/05/03 02:01:00;;;;;;;26.33;19.35;;;0.90;99.90;;;;;;2097951;28;20642;-69
2021/05/03 02:02:01;;;;;;;27.42;20.10;;;0.90;99.90;;;;;;2097065;28;20179;-68
2021/05/03 02:03:02;;;;;;;24.00;17.55;;;0.90;99.90;;;;;;2097118;28;20181;-69
2021/05/03 02:04:04;;;;;;;26.77;20.00;;;0.90;99.90;;;;;;2096732;28;20207;-69
2021/05/03 02:05:06;;;;;;;30.35;20.55;;;0.90;99.90;;;;;;2096433;28;20294;-69
2021/05/03 02:06:06;;;;;;;31.15;20.50;;;0.90;99.90;;;;;;2097876;28;20184;-69
2021/05/03 02:07:07;;;;;;;25.83;19.23;;;0.90;99.90;;;;;;2097996;28;20442;-69
2021/05/03 02:08:08;;;;;;;28.10;19.00;;;0.90;99.90;;;;;;2097866;28;20421;-69
2021/05/03 02:09:12;;;;;;;28.37;20.70;;;0.90;99.90;;;;;;2094771;28;20281;-69
2021/05/03 02:10:13;;;;;;;29.90;21.48;;;1.00;99.90;;;;;;2089702;28;20255;-69
2021/05/03 02:11:14;;;;;;;27.48;20.50;;;1.00;99.90;;;;;;2088959;28;20177;-69
2021/05/03 02:12:15;;;;;;;25.50;18.60;;;1.00;99.90;;;;;;2089076;28;20176;-69
2021/05/03 02:13:15;;;;;;;29.83;21.30;;;1.00;99.90;;;;;;2089155;28;20187;-68
2021/05/03 02:14:16;;;;;;;40.43;24.07;;;1.00;99.90;;;;;;2080531;28;20177;-69
2021/05/03 02:15:17;;;;;;;35.83;23.30;;;1.00;99.90;;;;;;2080962;28;20185;-69
2021/05/03 02:16:18;;;;;;;35.00;22.27;;;1.00;99.90;;;;;;2080621;28;20227;-68
2021/05/03 02:17:19;;;;;;;30.73;22.38;;;0.90;99.90;;;;;;2089035;28;20423;-69
2021/05/03 02:18:19;;;;;;;34.20;22.80;;;0.90;99.90;;;;;;2081696;28;20282;-69
2021/05/03 02:19:20;;;;;;;27.83;20.20;;;0.90;99.90;;;;;;2088738;28;20210;-68
2021/05/03 02:20:21;;;;;;;25.73;18.77;;;0.90;99.90;;;;;;2088662;28;20215;-69
2021/05/03 02:21:22;;;;;;;24.48;17.67;;;0.90;99.90;;;;;;2080958;28;20555;-68
2021/05/03 02:22:23;;;;;;;31.45;21.35;;;0.90;99.90;;;;;;2081264;28;20192;-69
2021/05/03 02:23:24;;;;;;;27.70;19.97;;;0.80;99.90;;;;;;2081193;28;20180;-68
2021/05/03 02:24:25;;;;;;;30.53;21.43;;;0.80;99.90;;;;;;2081256;28;20173;-69
2021/05/03 02:25:25;;;;;;;26.40;20.20;;;0.80;99.90;;;;;;2081098;28;20592;-68
2021/05/03 02:26:26;;;;;;;28.37;20.63;;;0.80;99.90;;;;;;2081203;28;20184;-69
2021/05/03 02:27:27;;;;;;;27.67;19.58;;;0.70;99.90;;;;;;2081319;28;20185;-68
2021/05/03 02:28:28;;;;;;;25.67;19.10;;;0.70;99.90;;;;;;2081205;28;20713;-69
2021/05/03 02:29:28;;;;;;;25.27;19.23;;;0.70;99.90;;;;;;2081246;28;20264;-68
2021/05/03 02:30:29;;;;;;;25.90;19.10;;;0.70;99.90;;;;;;2080907;28;20214;-69
2021/05/03 02:31:30;;;;;;;25.60;18.80;;;0.70;99.90;;;;;;2080356;28;20184;-69
2021/05/03 02:32:35;;;;;;;29.33;20.53;;;0.70;99.90;;;;;;2072223;28;20212;-68
2021/05/03 02:33:36;;;;;;;32.60;20.35;;;0.70;99.90;;;;;;2080732;28;20164;-69
2021/05/03 02:34:37;;;;;;;28.03;18.43;;;0.60;99.90;;;;;;2080599;28;20199;-69
2021/05/03 02:35:38;;;;;;;27.07;18.77;;;0.60;99.90;;;;;;2080342;28;20186;-69
2021/05/03 02:36:38;;;;;;;28.07;20.60;;;0.50;99.90;;;;;;2080653;28;20703;-69
2021/05/03 02:37:39;;;;;;;28.43;19.20;;;0.50;99.90;;;;;;2080637;28;20176;-70
2021/05/03 02:38:40;;;;;;;29.37;20.57;;;0.40;99.90;;;;;;2072257;28;20314;-69
2021/05/03 02:39:42;;;;;;;31.13;20.93;;;0.40;99.90;;;;;;2072318;28;20208;-68
2021/05/03 02:40:43;;;;;;;25.58;19.38;;;0.40;99.90;;;;;;2080402;28;20195;-69
2021/05/03 02:41:43;;;;;;;28.73;20.27;;;0.40;99.90;;;;;;2080184;28;20301;-69
2021/05/03 02:42:48;;;;;;;32.97;21.17;;;0.40;99.90;;;;;;2081043;28;20208;-68
2021/05/03 02:43:49;;;;;;;32.10;21.48;;;0.40;99.90;;;;;;2081087;28;20236;-69
2021/05/03 02:44:50;;;;;;;29.27;20.93;;;0.40;99.90;;;;;;2081142;28;20188;-69
2021/05/03 02:45:51;;;;;;;29.40;21.23;;;0.30;99.90;;;;;;2080471;28;20183;-69
2021/05/03 02:46:52;;;;;;;30.80;20.77;;;0.40;99.90;;;;;;2080503;28;20188;-69
2021/05/03 02:47:53;;;;;;;35.43;21.30;;;0.40;99.90;;;;;;2081028;28;20718;-69
2021/05/03 02:48:55;;;;;;;30.80;22.02;;;0.30;99.90;;;;;;2081066;28;20184;-68
2021/05/03 02:49:56;;;;;;;33.80;22.90;;;0.30;99.90;;;;;;2080346;28;20188;-68
2021/05/03 02:50:57;;;;;;;31.13;21.33;;;0.30;99.90;;;;;;2080426;28;20593;-68
2021/05/03 02:51:57;;;;;;;33.73;22.87;;;0.30;99.90;;;;;;2080708;28;20901;-69
2021/05/03 02:52:58;;;;;;;32.63;20.83;;;0.30;99.90;;;;;;2080525;28;20273;-68
2021/05/03 02:53:59;;;;;;;34.00;22.50;;;0.30;99.90;;;;;;2072269;28;20268;-68
2021/05/03 02:55:00;;;;;;;35.85;23.90;;;0.30;99.90;;;;;;2072275;28;20491;-68
2021/05/03 02:56:01;;;;;;;35.53;23.57;;;0.30;99.90;;;;;;2072571;28;20532;-69
2021/05/03 02:57:01;;;;;;;31.93;20.80;;;0.30;99.90;;;;;;2081568;28;20283;-69
2021/05/03 02:58:03;;;;;;;33.90;22.83;;;0.30;99.90;;;;;;2080948;28;20187;-68
2021/05/03 02:59:04;;;;;;;36.70;22.75;;;0.20;99.90;;;;;;2080292;28;20264;-69
2021/05/03 03:00:07;;;;;;;30.77;20.92;;;0.20;99.90;;;;;;2080339;28;20174;-69
2021/05/03 03:01:08;;;;;;;30.48;20.15;;;0.20;99.90;;;;;;2080362;28;20263;-69
2021/05/03 03:02:09;;;;;;;37.90;23.37;;;0.20;99.90;;;;;;2080088;28;20200;-69
2021/05/03 03:03:09;;;;;;;32.60;21.33;;;0.20;99.90;;;;;;2080413;28;20188;-68
2021/05/03 03:04:10;;;;;;;35.10;22.60;;;0.20;99.90;;;;;;2080882;28;20242;-68
2021/05/03 03:05:11;;;;;;;29.37;21.07;;;0.20;99.90;;;;;;2081029;28;20574;-68
2021/05/03 03:06:11;;;;;;;28.73;20.03;;;0.10;99.90;;;;;;2080879;28;20263;-69
2021/05/03 03:07:12;;;;;;;33.67;21.93;;;0.10;99.90;;;;;;2080266;28;20169;-68
2021/05/03 03:08:13;;;;;;;33.47;20.97;;;0.10;99.90;;;;;;2080230;28;20179;-68
2021/05/03 03:09:14;;;;;;;28.23;20.13;;;0.10;99.90;;;;;;2080916;28;20211;-68
2021/05/03 03:10:15;;;;;;;33.50;22.47;;;0.10;99.90;;;;;;2080175;28;20177;-70
2021/05/03 03:11:15;;;;;;;35.57;22.27;;;0.10;99.90;;;;;;2080060;28;20169;-69
2021/05/03 03:12:16;;;;;;;31.60;20.33;;;0.00;99.90;;;;;;2080957;28;20254;-68
2021/05/03 03:13:17;;;;;;;32.53;21.80;;;0.00;99.90;;;;;;2080305;28;20180;-68
2021/05/03 03:14:18;;;;;;;29.97;20.67;;;0.00;99.90;;;;;;2080194;28;20264;-68
2021/05/03 03:15:19;;;;;;;33.43;20.70;;;0.00;99.90;;;;;;2080954;28;20176;-69
2021/05/03 03:16:22;;;;;;;36.33;22.92;;;0.00;99.90;;;;;;2080882;28;20682;-68
2021/05/03 03:17:23;;;;;;;45.50;26.45;;;0.00;99.90;;;;;;2081003;28;20192;-69
2021/05/03 03:18:23;;;;;;;45.00;27.10;;;0.00;99.90;;;;;;2080200;28;20219;-68
2021/05/03 03:19:24;;;;;;;33.30;22.60;;;0.00;99.90;;;;;;2072213;28;20746;-68
2021/05/03 03:20:25;;;;;;;35.17;24.57;;;0.10;99.90;;;;;;2080333;28;20177;-69
2021/05/03 03:21:25;;;;;;;37.93;23.50;;;0.10;99.90;;;;;;2080227;28;20660;-68
2021/05/03 03:22:27;;;;;;;43.03;25.37;;;0.10;99.90;;;;;;2080315;28;20181;-69
2021/05/03 03:23:28;;;;;;;43.42;25.73;;;0.10;99.90;;;;;;2079960;28;20180;-69
2021/05/03 03:24:28;;;;;;;37.10;23.57;;;0.10;99.90;;;;;;2080556;28;20667;-68
2021/05/03 03:25:29;;;;;;;46.03;26.93;;;0.10;99.90;;;;;;2083253;28;20180;-68
2021/05/03 03:26:30;;;;;;;31.95;22.63;;;0.10;99.90;;;;;;2082085;28;20181;-68
2021/05/03 03:27:32;;;;;;;35.67;24.00;;;0.10;99.90;;;;;;2082818;28;20283;-68
2021/05/03 03:28:33;;;;;;;39.38;24.17;;;0.20;99.90;;;;;;2082263;28;20259;-68
2021/05/03 03:29:33;;;;;;;36.77;24.40;;;0.20;99.90;;;;;;2081114;28;20238;-68
2021/05/03 03:30:34;;;;;;;38.03;23.60;;;0.20;99.90;;;;;;2081084;28;20658;-68
2021/05/03 03:31:35;;;;;;;35.30;23.60;;;0.20;99.90;;;;;;2080615;28;20607;-68
2021/05/03 03:32:44;;;;;;;35.97;22.90;;;0.10;99.90;;;;;;2080901;28;20330;-68
2021/05/03 03:33:45;;;;;;;48.60;23.80;;;0.10;99.90;;;;;;2071947;28;20241;-68
2021/05/03 03:34:46;;;;;;;35.70;23.03;;;0.10;99.90;;;;;;2073065;28;20717;-68
2021/05/03 03:35:46;;;;;;;35.97;22.40;;;0.10;99.90;;;;;;2080753;28;20581;-68
2021/05/03 03:36:47;;;;;;;32.37;21.97;;;0.10;99.90;;;;;;2081100;28;20630;-68
2021/05/03 03:37:49;;;;;;;41.40;24.23;;;0.00;99.90;;;;;;2080856;28;20207;-68
2021/05/03 03:38:50;;;;;;;43.38;25.20;;;0.00;99.90;;;;;;2080346;28;20291;-68
2021/05/03 03:39:50;;;;;;;39.60;24.70;;;0.00;99.90;;;;;;2072124;28;20647;-68
2021/05/03 03:40:51;;;;;;;41.97;26.57;;;0.00;99.90;;;;;;2080296;28;20189;-68
2021/05/03 03:41:52;;;;;;;63.70;34.57;;;0.00;99.90;;;;;;2080388;28;20180;-68
2021/05/03 03:42:52;;;;;;;44.63;27.87;;;0.00;99.90;;;;;;2080827;28;20199;-68
2021/05/03 03:43:54;;;;;;;47.37;28.13;;;0.00;99.90;;;;;;2080799;28;20211;-68
2021/05/03 03:44:56;;;;;;;64.07;44.30;;;0.00;99.90;;;;;;2080287;28;20180;-68
2021/05/03 03:45:56;;;;;;;55.63;33.88;;;0.00;99.90;;;;;;2080239;28;20177;-67
2021/05/03 03:46:57;;;;;;;58.83;32.73;;;0.00;99.90;;;;;;2081098;28;20299;-69
2021/05/03 03:47:58;;;;;;;49.03;33.65;;;0.10;99.90;;;;;;2080451;28;20184;-68
2021/05/03 03:48:59;;;;;;;36.80;26.97;;;0.10;99.90;;;;;;2080294;28;20179;-68
2021/05/03 03:50:00;;;;;;;45.90;28.93;;;0.20;99.90;;;;;;2080882;28;20184;-68
2021/05/03 03:51:01;;;;;;;38.70;26.23;;;0.20;99.90;;;;;;2080430;28;20188;-68
2021/05/03 03:52:02;;;;;;;43.80;27.67;;;0.20;99.90;;;;;;2079922;28;20196;-68
2021/05/03 03:53:02;;;;;;;32.60;23.60;;;0.20;99.90;;;;;;2080838;28;20168;-68
2021/05/03 03:54:04;;;;;;;36.80;25.07;;;0.20;99.90;;;;;;2080683;28;20207;-68
2021/05/03 03:55:06;;;;;;;37.00;25.08;;;0.10;99.90;;;;;;2080043;28;20674;-68
2021/05/03 03:56:06;;;;;;;43.25;28.20;;;0.10;99.90;;;;;;2080015;28;20700;-67
2021/05/03 03:57:07;;;;;;;44.20;26.03;;;0.10;99.90;;;;;;2080616;28;20184;-68
2021/05/03 03:58:08;;;;;;;48.00;34.23;;;0.10;99.90;;;;;;2080583;28;20175;-68
2021/05/03 03:59:10;;;;;;;52.93;31.50;;;0.10;99.90;;;;;;2080736;28;20227;-68
2021/05/03 04:00:11;;;;;;;45.30;28.70;;;0.20;99.90;;;;;;2080624;28;20247;-68
2021/05/03 04:01:13;;;;;;;41.65;27.13;;;0.20;99.90;;;;;;2080405;28;20558;-69
2021/05/03 04:02:14;;;;;;;57.63;31.40;;;0.20;99.90;;;;;;2079791;28;20938;-68
2021/05/03 04:03:14;;;;;;;36.70;24.90;;;0.20;99.90;;;;;;2071890;28;20227;-69
2021/05/03 04:04:20;;;;;;;47.47;28.87;;;0.20;99.90;;;;;;2079947;28;20184;-68
2021/05/03 04:07:54;;;;;;;49.57;29.13;;;0.30;99.90;;;;;;2080380;28;20185;-68
2021/05/03 04:09:06;;;;;;;43.90;26.00;;;0.30;99.90;;;;;;2071775;28;20180;-68
2021/05/03 04:23:53;;;;;;;40.20;24.50;;;0.40;99.90;;;;;;2082625;28;20197;-67
2021/05/03 04:25:54;;;;;;;37.93;25.00;;;0.50;99.90;;;;;;2074672;28;20189;-68
2021/05/03 04:26:55;;;;;;;37.23;24.13;;;0.40;99.90;;;;;;2082015;28;20176;-69
2021/05/03 04:27:56;;;;;;;42.20;25.87;;;0.50;99.90;;;;;;2081952;28;20172;-69
2021/05/03 04:28:56;;;;;;;36.43;24.47;;;0.50;99.90;;;;;;2083866;28;20200;-69
2021/05/03 04:29:57;;;;;;;38.90;25.07;;;0.40;99.90;;;;;;2084135;28;20204;-69
2021/05/03 04:30:58;;;;;;;32.93;22.27;;;0.50;99.90;;;;;;2083995;28;20201;-68
2021/05/03 04:31:58;;;;;;;41.47;26.07;;;0.50;99.90;;;;;;2083851;28;20199;-69
2021/05/03 04:32:59;;;;;;;37.43;25.03;;;0.50;99.90;;;;;;2083645;28;20196;-68
2021/05/03 04:34:00;;;;;;;38.43;25.17;;;0.50;99.90;;;;;;2083455;28;20176;-69
2021/05/03 04:35:01;;;;;;;32.13;22.67;;;0.50;99.90;;;;;;2084099;28;20196;-68
2021/05/03 04:36:02;;;;;;;35.33;25.25;;;0.50;99.90;;;;;;2083644;28;20173;-69
2021/05/03 04:37:03;;;;;;;34.25;24.15;;;0.50;99.90;;;;;;2083693;28;20187;-68
2021/05/03 04:38:04;;;;;;;44.87;26.33;;;0.60;99.90;;;;;;2084070;28;20188;-68
2021/05/03 04:39:05;;;;;;;31.73;23.03;;;0.60;99.90;;;;;;2083966;28;20181;-68
2021/05/03 04:40:06;;;;;;;33.85;24.02;;;0.60;99.90;;;;;;2083993;28;20216;-69
2021/05/03 04:41:08;;;;;;;31.13;22.73;;;0.60;99.90;;;;;;2084042;28;20203;-68
2021/05/03 04:42:09;;;;;;;28.63;21.35;;;0.60;99.90;;;;;;2083361;28;20172;-68
2021/05/03 04:43:10;;;;;;;30.88;22.73;;;0.60;99.90;;;;;;2083592;28;20307;-68
2021/05/03 04:44:11;;;;;;;36.60;23.57;;;0.60;99.90;;;;;;2084004;28;20238;-68
2021/05/03 04:45:13;;;;;;;30.63;21.83;;;0.60;99.90;;;;;;2084060;28;20911;-68
2021/05/03 04:46:16;;;;;;;30.73;22.40;;;0.70;99.90;;;;;;2084005;28;20184;-68
2021/05/03 04:47:17;;;;;;;28.83;21.00;;;0.70;99.90;;;;;;2084377;28;20235;-68
2021/05/03 04:48:18;;;;;;;30.70;22.05;;;0.70;99.90;;;;;;2083529;28;20179;-68
2021/05/03 04:49:19;;;;;;;26.40;20.10;;;0.70;99.90;;;;;;2083463;28;20200;-68
2021/05/03 04:50:20;;;;;;;29.27;21.33;;;0.70;99.90;;;;;;2084158;28;20206;-68
2021/05/03 04:51:20;;;;;;;28.60;20.60;;;0.80;99.90;;;;;;2083921;28;20214;-68
2021/05/03 04:52:21;;;;;;;29.40;22.13;;;0.80;99.90;;;;;;2084036;28;20290;-68
2021/05/03 04:53:23;;;;;;;27.93;20.40;;;0.80;99.90;;;;;;2084312;28;20181;-68
2021/05/03 04:54:23;;;;;;;31.95;22.17;;;0.80;99.90;;;;;;2084292;28;20186;-68
2021/05/03 04:55:24;;;;;;;37.53;24.10;;;0.80;99.90;;;;;;2086631;28;20290;-69
2021/05/03 04:56:25;;;;;;;29.63;20.03;;;0.80;99.90;;;;;;2092058;28;20233;-69
2021/05/03 04:57:26;;;;;;;29.33;21.50;;;0.80;99.90;;;;;;2092371;28;20431;-68
2021/05/03 04:58:27;;;;;;;29.87;21.23;;;0.80;99.90;;;;;;2091693;28;20175;-68
2021/05/03 04:59:27;;;;;;;32.63;22.80;;;0.80;99.90;;;;;;2091494;28;20749;-68
2021/05/03 05:00:28;;;;;;;29.50;21.20;;;0.80;99.90;;;;;;2092173;28;20177;-68
2021/05/03 05:01:28;;;;;;;33.27;22.17;;;0.80;99.90;;;;;;2091950;28;20279;-68
2021/05/03 05:02:29;;;;;;;29.37;21.17;;;0.80;99.90;;;;;;2091447;28;20184;-68
2021/05/03 05:03:30;;;;;;;27.13;21.03;;;0.80;99.90;;;;;;2091318;28;20573;-68
2021/05/03 05:04:30;;;;;;;31.47;22.33;;;0.80;99.90;;;;;;2091225;28;20177;-68
2021/05/03 05:05:32;;;;;;;30.27;20.23;;;0.80;99.90;;;;;;2091374;28;20621;-68
2021/05/03 05:06:32;;;;;;;32.20;21.67;;;0.80;99.90;;;;;;2091489;28;20207;-68
2021/05/03 05:07:33;;;;;;;28.43;20.73;;;0.80;99.90;;;;;;2091484;28;20618;-68
2021/05/03 05:08:34;;;;;;;29.93;21.23;;;0.90;99.90;;;;;;2091918;28;20545;-68
2021/05/03 05:09:35;;;;;;;29.80;21.37;;;0.90;99.90;;;;;;2091943;28;20192;-68
2021/05/03 05:10:35;;;;;;;29.13;21.50;;;0.90;99.90;;;;;;2092102;28;20179;-68
2021/05/03 05:11:36;;;;;;;32.30;22.53;;;0.90;99.90;;;;;;2091732;28;20228;-69
2021/05/03 05:12:37;;;;;;;29.80;20.90;;;0.90;99.90;;;;;;2091744;28;20179;-68
2021/05/03 05:13:38;;;;;;;29.85;21.35;;;0.90;99.90;;;;;;2091911;28;20290;-68
2021/05/03 05:14:39;;;;;;;23.53;19.13;;;0.90;99.90;;;;;;2092045;28;20644;-68
2021/05/03 05:15:39;;;;;;;26.60;19.83;;;1.00;99.90;;;;;;2091821;28;20191;-68
2021/05/03 05:16:40;;;;;;;30.53;21.33;;;1.00;99.90;;;;;;2091274;28;20188;-69
2021/05/03 05:17:41;;;;;;;26.40;18.77;;;1.00;99.90;;;;;;2082949;28;20208;-69
2021/05/03 05:18:42;;;;;;;27.13;20.08;;;1.00;99.90;;;;;;2091407;28;20454;-68
2021/05/03 05:19:43;;;;;;;29.83;21.00;;;1.10;99.90;;;;;;2091711;28;20579;-68
2021/05/03 05:20:45;;;;;;;31.50;21.03;;;1.10;99.90;;;;;;2091951;28;20234;-69
2021/05/03 05:21:45;;;;;;;26.38;19.85;;;1.10;99.90;;;;;;2091714;28;20184;-68
2021/05/03 05:22:46;;;;;;;26.63;20.60;;;1.10;99.90;;;;;;2091844;28;20187;-68
2021/05/03 05:23:48;;;;;;;26.07;19.03;;;1.10;99.90;;;;;;2091960;28;20216;-68
2021/05/03 05:24:49;;;;;;;27.88;20.77;;;1.20;99.90;;;;;;2091450;28;20172;-68
2021/05/03 05:25:50;;;;;;;21.93;17.90;;;1.20;99.90;;;;;;2091547;28;20730;-69
2021/05/03 05:26:50;;;;;;;27.30;19.43;;;1.20;99.90;;;;;;2092101;28;20627;-68
2021/05/03 05:27:51;;;;;;;24.93;18.53;;;1.20;99.90;;;;;;2092032;28;20176;-68
2021/05/03 05:28:52;;;;;;;26.33;19.43;;;1.30;99.90;;;;;;2091754;28;20199;-67
2021/05/03 05:29:53;;;;;;;28.63;19.57;;;1.30;99.90;;;;;;2091932;28;20181;-69
2021/05/03 05:30:53;;;;;;;30.23;21.20;;;1.30;99.90;;;;;;2092092;28;20207;-68
2021/05/03 05:31:54;;;;;;;26.33;20.53;;;1.30;99.90;;;;;;2091826;28;20725;-69
2021/05/03 05:32:55;;;;;;;25.37;19.03;;;1.40;99.90;;;;;;2091486;28;20267;-68